Terminal Aerodrome Forecast
Issued by NWS Louisville, KY

Home | Current Version | Previous Version | Text Only | Print | Product List | Glossary On
Versions: 1 2 3 4 5 6 7 8 9 10 11 12 13 14 15 16
439
FTUS43 KLMK 022058 AAA
TAFLEX
TAF AMD
KLEX 022058Z 0221/0318 29006KT P6SM BKN035
     FM031200 32005KT P6SM SCT030=

USA.gov is the U.S. government's official web portal to all federal, state and local government web resources and services.